Time;durP1;ratioP1;P1;durP2;ratioP2;P2;SDS_P1;SDS_P2;PMS_P1;PMS_P2;Temp;Humidity;BMP_temperature;BMP_pressure;BME280_temperature;BME280_humidity;BME280_pressure;Samples;Min_cycle;Max_cycle;Signal;HPM_P1;HPM_P2
2022/03/28 00:00:10;;;;;;;11.23;4.75;;;;;;;2.96;87.34;99262.97;5066399;28;20048;-68
2022/03/28 00:02:40;;;;;;;9.30;4.68;;;;;;;2.88;87.05;99259.31;5065031;28;20021;-68
2022/03/28 00:05:06;;;;;;;10.68;5.25;;;;;;;2.81;87.53;99254.84;5047726;28;20313;-67
2022/03/28 00:07:32;;;;;;;11.55;5.72;;;;;;;2.80;87.54;99255.69;5046570;28;20025;-67
2022/03/28 00:09:57;;;;;;;8.02;4.30;;;;;;;2.71;87.56;99250.31;5046486;28;20032;-67
2022/03/28 00:12:23;;;;;;;11.55;4.82;;;;;;;2.64;88.10;99253.63;5052156;28;20051;-67
2022/03/28 00:14:48;;;;;;;11.82;4.75;;;;;;;2.71;87.88;99250.31;5055589;28;20256;-68
2022/03/28 00:17:14;;;;;;;7.63;4.55;;;;;;;2.76;87.51;99251.28;5046482;28;20029;-68
2022/03/28 00:19:39;;;;;;;10.20;5.05;;;;;;;2.63;87.97;99241.50;5046402;28;20347;-68
2022/03/28 00:22:05;;;;;;;9.68;5.05;;;;;;;2.52;87.55;99242.97;5049433;28;20021;-67
2022/03/28 00:24:30;;;;;;;9.82;4.57;;;;;;;2.53;87.69;99239.50;5061052;28;20021;-68
2022/03/28 00:26:56;;;;;;;13.27;5.57;;;;;;;2.44;88.12;99239.34;5050381;28;20224;-68
2022/03/28 00:29:21;;;;;;;9.50;4.60;;;;;;;2.40;87.56;99237.50;5055147;28;20029;-67
2022/03/28 00:31:47;;;;;;;16.65;5.68;;;;;;;2.34;88.02;99236.50;5065662;28;20036;-67
2022/03/28 00:34:15;;;;;;;10.48;4.38;;;;;;;2.38;88.16;99222.72;5066012;28;20074;-68
2022/03/28 00:36:41;;;;;;;10.93;5.07;;;;;;;2.46;87.66;99227.25;5064860;28;20028;-67
2022/03/28 00:39:07;;;;;;;12.90;5.38;;;;;;;2.28;87.99;99224.25;5065942;28;20021;-68
2022/03/28 00:41:32;;;;;;;11.38;4.82;;;;;;;2.37;88.08;99226.16;5065470;28;20032;-68
2022/03/28 00:43:59;;;;;;;9.40;4.93;;;;;;;2.29;88.13;99228.59;5065900;28;20032;-68
2022/03/28 00:46:25;;;;;;;8.80;4.95;;;;;;;2.25;88.85;99221.59;5065832;28;20087;-68
2022/03/28 00:48:52;;;;;;;19.20;4.45;;;;;;;2.14;88.61;99217.84;5065806;28;20029;-68
2022/03/28 00:51:19;;;;;;;9.82;5.07;;;;;;;2.23;88.64;99218.06;5065399;28;20029;-68
2022/03/28 00:53:45;;;;;;;8.10;4.25;;;;;;;2.27;88.36;99217.28;5054191;28;20040;-68
2022/03/28 00:56:12;;;;;;;10.45;4.03;;;;;;;2.28;88.47;99217.31;5051803;28;20041;-67
2022/03/28 00:58:38;;;;;;;9.82;4.72;;;;;;;2.28;88.36;99216.47;5065318;28;20032;-68
2022/03/28 01:01:04;;;;;;;10.73;4.60;;;;;;;2.03;87.90;99208.97;5053683;28;20026;-68
2022/03/28 01:03:29;;;;;;;10.88;4.75;;;;;;;2.01;88.44;99213.22;5045613;28;20085;-68
2022/03/28 01:05:55;;;;;;;13.18;4.97;;;;;;;1.87;88.42;99202.50;5063757;28;20080;-68
2022/03/28 01:08:21;;;;;;;11.20;5.03;;;;;;;1.83;89.08;99205.00;5065172;28;20343;-68
2022/03/28 01:10:48;;;;;;;12.57;5.40;;;;;;;1.86;89.57;99205.06;5065334;28;20024;-68
2022/03/28 01:13:15;;;;;;;10.60;4.28;;;;;;;1.82;89.48;99201.53;5065279;28;20051;-68
2022/03/28 01:15:40;;;;;;;12.93;4.93;;;;;;;1.89;89.20;99205.13;5065594;28;20312;-68
2022/03/28 01:18:06;;;;;;;7.88;4.00;;;;;;;1.87;89.49;99197.31;5064992;28;20047;-68
2022/03/28 01:20:34;;;;;;;13.60;5.43;;;;;;;1.90;89.83;99196.53;5064956;28;20040;-68
2022/03/28 01:22:59;;;;;;;9.20;5.00;;;;;;;1.88;89.97;99187.81;5062516;28;20221;-68
2022/03/28 01:25:27;;;;;;;8.50;4.25;;;;;;;1.94;89.67;99187.97;5045232;28;20021;-68
2022/03/28 01:27:53;;;;;;;10.48;4.50;;;;;;;1.79;88.96;99187.59;5047789;28;20024;-68
2022/03/28 01:30:22;;;;;;;12.65;4.80;;;;;;;1.80;90.62;99184.16;5059748;28;20801;-68
2022/03/28 01:32:49;;;;;;;11.50;4.95;;;;;;;1.80;89.71;99184.16;5054403;28;20233;-68
2022/03/28 01:35:35;;;;;;;13.88;5.43;;;;;;;1.67;89.59;99182.13;5064892;28;20088;-68
2022/03/28 01:38:03;;;;;;;9.25;4.55;;;;;;;1.62;90.19;99182.00;5065161;28;20075;-68
2022/03/28 01:40:29;;;;;;;13.55;5.53;;;;;;;1.64;90.81;99188.13;5064786;28;20021;-68
2022/03/28 01:42:55;;;;;;;7.78;4.38;;;;;;;1.70;90.68;99177.88;5064766;28;20040;-68
2022/03/28 01:45:20;;;;;;;10.48;4.97;;;;;;;1.61;90.12;99177.66;5064438;28;20075;-68
2022/03/28 01:47:46;;;;;;;12.32;5.15;;;;;;;1.63;89.85;99190.66;5064407;28;20017;-68
2022/03/28 01:50:13;;;;;;;8.23;4.55;;;;;;;1.64;89.64;99184.63;5064281;28;20021;-68
2022/03/28 01:52:39;;;;;;;12.60;4.35;;;;;;;1.65;89.73;99178.63;5063883;28;20221;-68
2022/03/28 01:55:05;;;;;;;13.35;5.80;;;;;;;1.65;89.35;99178.63;5064373;28;20020;-68
2022/03/28 01:57:30;;;;;;;12.60;4.43;;;;;;;1.68;89.28;99179.56;5064241;28;20047;-68
2022/03/28 01:59:56;;;;;;;9.18;4.22;;;;;;;1.47;89.34;99162.59;5061427;28;20017;-67
2022/03/28 02:02:21;;;;;;;8.88;4.97;;;;;;;1.51;89.86;99170.50;5044524;28;20213;-68
2022/03/28 02:04:47;;;;;;;8.13;4.25;;;;;;;1.53;90.11;99170.53;5050221;28;20269;-68
2022/03/28 02:07:12;;;;;;;9.32;4.70;;;;;;;1.60;88.78;99169.84;5064325;28;20021;-68
2022/03/28 02:09:37;;;;;;;7.93;4.68;;;;;;;1.38;89.03;99167.56;5063779;28;20028;-68
2022/03/28 02:12:04;;;;;;;10.63;4.80;;;;;;;1.20;89.06;99167.97;5062514;28;20016;-68
2022/03/28 02:14:29;;;;;;;7.57;4.78;;;;;;;1.31;90.03;99165.66;5044677;28;20025;-68
2022/03/28 02:16:54;;;;;;;13.70;4.55;;;;;;;1.34;90.36;99165.75;5044279;28;20328;-68
2022/03/28 02:19:20;;;;;;;14.85;6.50;;;;;;;1.34;90.73;99165.75;5044219;28;20101;-68
2022/03/28 02:21:45;;;;;;;10.23;6.03;;;;;;;1.34;90.83;99165.75;5044155;28;20041;-68
2022/03/28 02:24:11;;;;;;;11.73;5.05;;;;;;;1.38;91.04;99162.38;5045486;28;20338;-68
2022/03/28 02:26:37;;;;;;;9.23;4.80;;;;;;;1.51;91.27;99164.41;5044091;28;20091;-68
2022/03/28 02:29:03;;;;;;;13.73;5.32;;;;;;;1.43;90.76;99158.19;5045442;28;20025;-68
2022/03/28 02:31:28;;;;;;;19.15;6.43;;;;;;;1.39;90.86;99148.59;5059649;28;20103;-68
2022/03/28 02:33:54;;;;;;;12.85;6.32;;;;;;;1.31;89.88;99143.22;5047387;28;20021;-68
2022/03/28 02:36:19;;;;;;;20.77;6.40;;;;;;;1.24;89.73;99145.59;5052676;28;20022;-68
2022/03/28 02:38:44;;;;;;;19.80;6.10;;;;;;;1.17;90.34;99152.34;5046852;28;20016;-68
2022/03/28 02:41:10;;;;;;;14.68;5.95;;;;;;;1.23;90.71;99152.50;5063598;28;20016;-68
2022/03/28 02:43:35;;;;;;;18.20;5.50;;;;;;;1.27;90.92;99150.88;5063575;28;20213;-68
2022/03/28 02:46:01;;;;;;;17.13;4.55;;;;;;;1.26;91.23;99146.50;5063582;28;20024;-68
2022/03/28 02:48:26;;;;;;;11.27;5.40;;;;;;;1.27;91.11;99143.09;5063780;28;20021;-68
2022/03/28 02:50:52;;;;;;;10.20;5.00;;;;;;;1.25;91.31;99155.13;5062434;28;20036;-68
2022/03/28 02:53:17;;;;;;;13.00;5.18;;;;;;;1.28;90.85;99147.44;5063666;28;20251;-68
2022/03/28 02:55:42;;;;;;;14.00;4.75;;;;;;;1.15;90.04;99147.97;5062426;28;20021;-68
2022/03/28 02:58:08;;;;;;;14.35;6.07;;;;;;;1.06;90.74;99137.34;5043757;28;20025;-68
2022/03/28 03:00:34;;;;;;;14.20;5.13;;;;;;;1.10;91.58;99145.25;5043998;28;20040;-68
2022/03/28 03:03:00;;;;;;;9.93;6.05;;;;;;;1.12;91.03;99141.00;5047412;28;20012;-68
2022/03/28 03:05:25;;;;;;;11.45;5.28;;;;;;;1.10;91.08;99136.59;5066437;28;20071;-68
2022/03/28 03:07:51;;;;;;;7.45;4.50;;;;;;;1.05;90.68;99140.78;5061074;28;20177;-68
2022/03/28 03:10:16;;;;;;;12.73;4.28;;;;;;;0.89;90.05;99136.03;5047626;28;20017;-68
2022/03/28 03:12:42;;;;;;;11.60;5.65;;;;;;;0.76;91.26;99131.38;5047614;28;20036;-68
2022/03/28 03:15:08;;;;;;;13.43;7.18;;;;;;;0.81;91.49;99133.25;5057570;28;20036;-68
2022/03/28 03:17:34;;;;;;;16.77;4.78;;;;;;;0.94;91.31;99134.44;5047606;28;20025;-68
2022/03/28 03:19:59;;;;;;;12.02;5.72;;;;;;;0.77;90.55;99130.53;5047520;28;20088;-68
2022/03/28 03:22:25;;;;;;;12.98;4.60;;;;;;;0.80;90.81;99130.63;5047476;28;20212;-68
2022/03/28 03:24:50;;;;;;;14.82;6.18;;;;;;;0.79;91.24;99136.66;5054931;28;20020;-68
2022/03/28 03:27:16;;;;;;;24.13;6.68;;;;;;;0.87;91.35;99137.72;5048505;28;20040;-68
2022/03/28 03:29:41;;;;;;;20.77;6.20;;;;;;;0.86;91.59;99131.66;5053341;28;20247;-68
2022/03/28 03:32:08;;;;;;;23.63;4.85;;;;;;;0.71;90.79;99127.78;5067109;28;20036;-68
2022/03/28 03:34:34;;;;;;;12.88;5.18;;;;;;;0.64;90.54;99120.69;5065587;28;20021;-68
2022/03/28 03:37:00;;;;;;;11.32;6.13;;;;;;;0.70;91.27;99133.81;5050233;28;20301;-68
2022/03/28 03:39:25;;;;;;;10.48;5.30;;;;;;;0.83;91.33;99125.53;5062017;28;20024;-68
2022/03/28 03:41:52;;;;;;;18.75;5.90;;;;;;;0.60;90.50;99124.03;5066793;28;20028;-68
2022/03/28 03:44:17;;;;;;;21.23;6.03;;;;;;;0.59;91.75;99127.44;5067054;28;20025;-68
2022/03/28 03:46:43;;;;;;;12.48;5.53;;;;;;;0.70;92.80;99131.22;5048223;28;20078;-68
2022/03/28 03:49:09;;;;;;;11.48;6.70;;;;;;;0.64;92.19;99131.94;5047001;28;20060;-68
2022/03/28 03:51:35;;;;;;;18.77;4.75;;;;;;;0.54;91.55;99137.66;5046329;28;20367;-68
2022/03/28 03:54:01;;;;;;;9.73;4.82;;;;;;;0.64;91.70;99137.09;5047096;28;20090;-68
2022/03/28 03:56:28;;;;;;;17.42;6.25;;;;;;;0.70;91.41;99136.41;5055724;28;20040;-68
2022/03/28 03:58:54;;;;;;;14.15;4.97;;;;;;;0.56;90.67;99132.53;5065834;28;20189;-68
2022/03/28 04:01:21;;;;;;;18.98;6.97;;;;;;;0.56;90.88;99137.72;5066323;28;20028;-68
2022/03/28 04:03:46;;;;;;;15.48;6.80;;;;;;;0.58;91.26;99134.34;5066671;28;20021;-68
2022/03/28 04:06:11;;;;;;;6.97;4.13;;;;;;;0.60;91.60;99124.88;5066627;28;20086;-68
2022/03/28 04:08:37;;;;;;;17.00;6.47;;;;;;;0.65;91.73;99133.69;5066589;28;20021;-68
2022/03/28 04:11:04;;;;;;;11.52;5.20;;;;;;;0.65;91.32;99137.97;5066465;28;20025;-68
2022/03/28 04:13:30;;;;;;;16.17;6.57;;;;;;;0.59;91.34;99132.63;5066713;28;20233;-68
2022/03/28 04:15:55;;;;;;;11.50;5.13;;;;;;;0.61;91.45;99131.84;5065599;28;20028;-68
2022/03/28 04:18:20;;;;;;;18.77;6.35;;;;;;;0.60;91.18;99134.41;5066403;28;20044;-68
2022/03/28 04:20:46;;;;;;;12.55;5.70;;;;;;;0.59;90.26;99128.31;5066359;28;20090;-68
2022/03/28 04:23:12;;;;;;;11.50;6.00;;;;;;;0.40;91.14;99125.16;5066328;28;20121;-68
2022/03/28 04:25:37;;;;;;;13.07;5.80;;;;;;;0.34;92.19;99119.84;5066276;28;20032;-68
2022/03/28 04:28:06;;;;;;;15.32;6.45;;;;;;;0.31;91.79;99119.75;5066211;28;20028;-68
2022/03/28 04:30:32;;;;;;;18.00;6.72;;;;;;;0.16;92.25;99121.91;5065988;28;20045;-68
2022/03/28 04:32:57;;;;;;;17.02;5.45;;;;;;;0.24;92.74;99128.16;5066051;28;20032;-68
2022/03/28 04:35:23;;;;;;;14.95;5.65;;;;;;;0.40;92.85;99135.53;5066116;28;20343;-68
2022/03/28 04:37:48;;;;;;;13.63;5.82;;;;;;;0.35;92.39;99126.78;5066287;28;20080;-67
2022/03/28 04:40:16;;;;;;;15.65;5.72;;;;;;;0.32;92.17;99118.91;5065989;28;20296;-68
2022/03/28 04:42:42;;;;;;;12.50;6.25;;;;;;;0.33;92.14;99128.44;5065990;28;20048;-68
2022/03/28 04:45:08;;;;;;;13.10;6.28;;;;;;;0.26;91.76;99116.16;5065900;28;20029;-68
2022/03/28 04:47:35;;;;;;;13.05;5.90;;;;;;;0.30;92.21;99133.53;5065875;28;20216;-68
2022/03/28 04:50:00;;;;;;;12.45;6.28;;;;;;;0.34;92.85;99125.03;5065809;28;20028;-68
2022/03/28 04:52:26;;;;;;;15.57;7.00;;;;;;;0.26;92.04;99126.50;5065736;28;20025;-68
2022/03/28 04:54:52;;;;;;;13.05;6.38;;;;;;;0.23;92.15;99126.41;5065731;28;20029;-68
2022/03/28 04:57:18;;;;;;;15.43;6.43;;;;;;;0.07;91.02;99119.94;5065684;28;20033;-68
2022/03/28 04:59:43;;;;;;;16.30;6.85;;;;;;;0.07;92.68;99127.69;5065588;28;20098;-68
2022/03/28 05:02:08;;;;;;;10.98;6.68;;;;;;;0.13;93.66;99132.16;5065587;28;20083;-68
2022/03/28 05:04:34;;;;;;;18.48;7.45;;;;;;;0.22;93.07;99132.44;5065774;28;20025;-68
2022/03/28 05:07:00;;;;;;;15.73;7.65;;;;;;;0.33;92.35;99124.13;5065437;28;20021;-68
2022/03/28 05:09:26;;;;;;;14.52;6.82;;;;;;;0.20;91.44;99134.09;5065462;28;20052;-68
2022/03/28 05:11:51;;;;;;;15.60;6.28;;;;;;;0.27;91.37;99134.31;5065243;28;20025;-68
2022/03/28 05:14:18;;;;;;;15.90;6.22;;;;;;;0.33;90.96;99133.59;5065364;28;20209;-68
2022/03/28 05:16:44;;;;;;;21.00;6.65;;;;;;;0.21;90.55;99122.91;5065523;28;20033;-68
2022/03/28 05:19:09;;;;;;;23.92;6.53;;;;;;;0.24;91.29;99122.97;5065250;28;20386;-68
2022/03/28 05:21:35;;;;;;;16.17;7.28;;;;;;;0.19;91.30;99117.66;5065196;28;20070;-68
2022/03/28 05:24:00;;;;;;;16.25;6.22;;;;;;;0.26;91.94;99121.31;5065126;28;20118;-68
2022/03/28 05:26:26;;;;;;;14.80;5.82;;;;;;;0.28;91.90;99122.25;5065359;28;20025;-68
2022/03/28 05:28:52;;;;;;;13.82;6.88;;;;;;;0.42;91.39;99126.09;5065039;28;20029;-68
2022/03/28 05:31:17;;;;;;;13.02;6.18;;;;;;;0.30;90.72;99123.16;5064777;28;20037;-68
2022/03/28 05:33:43;;;;;;;15.10;7.20;;;;;;;0.36;91.22;99126.81;5065020;28;20080;-68
2022/03/28 05:36:08;;;;;;;17.00;6.90;;;;;;;0.42;91.12;99119.22;5064951;28;20044;-68
2022/03/28 05:38:34;;;;;;;14.18;6.45;;;;;;;0.61;90.78;99115.41;5064838;28;20025;-68
2022/03/28 05:40:59;;;;;;;18.23;7.28;;;;;;;0.69;90.52;99119.09;5064829;28;20032;-68
2022/03/28 05:43:25;;;;;;;19.58;7.78;;;;;;;0.72;89.86;99119.16;5064756;28;20058;-68
2022/03/28 05:45:54;;;;;;;11.43;6.38;;;;;;;0.64;90.14;99115.50;5064711;28;20029;-68
2022/03/28 05:48:20;;;;;;;15.70;7.50;;;;;;;0.72;90.44;99119.16;5064711;28;20025;-68
2022/03/28 05:50:46;;;;;;;11.52;5.85;;;;;;;1.24;89.58;99127.47;5064664;28;20252;-68
2022/03/28 05:53:13;;;;;;;11.23;5.97;;;;;;;1.75;87.75;99133.88;5064793;28;20352;-68
2022/03/28 05:55:43;;;;;;;14.25;6.07;;;;;;;2.00;86.09;99142.25;5064584;28;20041;-68
2022/03/28 05:58:09;;;;;;;19.98;6.80;;;;;;;2.32;84.93;99145.56;5065062;28;20024;-67
2022/03/28 06:00:36;;;;;;;14.00;5.78;;;;;;;2.62;83.94;99138.38;5064422;28;20066;-68
2022/03/28 06:03:01;;;;;;;13.00;6.72;;;;;;;2.82;82.79;99150.06;5064435;28;20221;-68
2022/03/28 06:05:27;;;;;;;10.55;5.68;;;;;;;3.41;81.84;99149.38;5064413;28;20027;-68
2022/03/28 06:07:52;;;;;;;13.98;5.93;;;;;;;3.78;79.60;99154.34;5064610;28;20028;-68
2022/03/28 06:10:18;;;;;;;12.43;4.97;;;;;;;4.10;78.29;99145.28;5064264;28;20142;-68
2022/03/28 06:12:43;;;;;;;13.00;5.97;;;;;;;4.37;77.12;99144.78;5064193;28;20017;-68
2022/03/28 06:15:09;;;;;;;14.60;5.78;;;;;;;4.38;76.81;99152.63;5064252;28;20033;-68
2022/03/28 06:17:35;;;;;;;14.40;6.68;;;;;;;4.61;76.00;99150.28;5064170;28;20035;-68
2022/03/28 06:20:04;;;;;;;12.65;6.30;;;;;;;5.13;74.09;99167.41;5064136;28;20024;-68
2022/03/28 06:22:30;;;;;;;13.85;6.25;;;;;;;5.36;73.14;99158.06;5064118;28;20032;-68
2022/03/28 06:24:56;;;;;;;17.80;7.05;;;;;;;5.38;74.00;99156.34;5064080;28;20029;-68
2022/03/28 06:27:24;;;;;;;18.77;6.53;;;;;;;6.21;71.89;99171.81;5064058;28;20083;-68
2022/03/28 06:29:52;;;;;;;14.77;5.70;;;;;;;6.51;70.59;99158.06;5064278;28;20021;-68
2022/03/28 06:32:19;;;;;;;12.43;5.43;;;;;;;6.78;70.17;99157.31;5063776;28;20282;-68
2022/03/28 06:34:44;;;;;;;10.50;5.13;;;;;;;6.89;68.97;99151.25;5063939;28;20032;-67
2022/03/28 06:37:10;;;;;;;20.27;6.80;;;;;;;7.31;68.54;99151.34;5063971;28;20021;-68
2022/03/28 06:39:36;;;;;;;14.77;5.47;;;;;;;7.62;67.39;99155.75;5063482;28;20020;-68
2022/03/28 06:42:03;;;;;;;11.18;5.32;;;;;;;7.86;66.52;99150.53;5063900;28;20021;-68
2022/03/28 06:44:30;;;;;;;10.90;5.40;;;;;;;8.20;64.98;99149.59;5063879;28;20044;-68
2022/03/28 06:46:56;;;;;;;9.45;5.20;;;;;;;8.35;66.58;99160.09;5064117;28;20223;-68
2022/03/28 06:49:22;;;;;;;10.25;5.13;;;;;;;8.52;68.25;99158.28;5063778;28;20050;-68
2022/03/28 06:51:47;;;;;;;12.95;5.25;;;;;;;9.37;64.43;99165.78;5063717;28;20025;-68
2022/03/28 06:54:14;;;;;;;9.63;4.60;;;;;;;9.56;63.19;99168.28;5063773;28;20396;-67
2022/03/28 06:56:41;;;;;;;9.38;4.35;;;;;;;9.98;63.33;99161.81;5064009;28;20024;-67
2022/03/28 06:59:08;;;;;;;10.07;4.85;;;;;;;10.22;62.27;99166.91;5063767;28;20021;-68
2022/03/28 07:01:34;;;;;;;13.15;4.90;;;;;;;10.59;61.89;99168.25;5063743;28;20059;-67
2022/03/28 07:04:00;;;;;;;15.98;4.70;;;;;;;10.81;61.30;99168.00;5063912;28;20021;-68
2022/03/28 07:06:25;;;;;;;8.02;4.75;;;;;;;11.10;61.05;99169.41;5063918;28;20262;-68
2022/03/28 07:08:51;;;;;;;8.32;4.07;;;;;;;11.23;61.02;99181.53;5063646;28;20317;-67
2022/03/28 07:11:17;;;;;;;7.82;4.10;;;;;;;11.58;60.05;99174.84;5063434;28;20021;-68
2022/03/28 07:13:42;;;;;;;12.75;5.35;;;;;;;11.90;58.13;99177.91;5063566;28;20025;-68
2022/03/28 07:16:08;;;;;;;9.25;4.55;;;;;;;11.74;57.93;99170.28;5063612;28;20370;-68
2022/03/28 07:18:34;;;;;;;10.35;6.03;;;;;;;11.63;57.46;99159.88;5063546;28;20025;-67
2022/03/28 07:20:59;;;;;;;10.52;6.40;;;;;;;11.53;57.42;99155.63;5063764;28;20092;-68
2022/03/28 07:23:25;;;;;;;12.60;6.95;;;;;;;11.89;59.05;99170.91;5063518;28;20040;-68
2022/03/28 07:25:50;;;;;;;10.50;6.30;;;;;;;12.49;57.93;99174.25;5063461;28;20032;-67
2022/03/28 07:28:17;;;;;;;11.90;6.93;;;;;;;13.21;56.56;99174.59;5063408;28;20312;-68
2022/03/28 07:30:43;;;;;;;11.80;6.35;;;;;;;13.38;55.45;99175.13;5063234;28;20048;-67
2022/03/28 07:33:09;;;;;;;10.40;6.20;;;;;;;13.80;54.92;99179.44;5063306;28;20048;-68
2022/03/28 07:35:37;;;;;;;11.90;6.15;;;;;;;14.09;55.15;99182.25;5063394;28;20025;-68
2022/03/28 07:38:06;;;;;;;12.18;7.32;;;;;;;14.43;55.08;99178.72;5063421;28;20106;-68
2022/03/28 07:40:31;;;;;;;14.65;7.28;;;;;;;14.96;54.45;99179.91;5063578;28;20023;-68
2022/03/28 07:42:57;;;;;;;13.05;7.35;;;;;;;14.95;54.79;99156.97;5063322;28;20045;-68
2022/03/28 07:45:23;;;;;;;14.80;6.75;;;;;;;15.40;54.30;99166.28;5063310;28;20024;-68
2022/03/28 07:47:49;;;;;;;12.07;6.97;;;;;;;15.58;54.26;99160.41;5063233;28;20086;-68
2022/03/28 07:50:15;;;;;;;11.77;6.75;;;;;;;15.83;55.01;99156.06;5063231;28;20024;-68
2022/03/28 07:52:41;;;;;;;13.40;6.82;;;;;;;16.50;54.45;99158.25;5066016;28;20044;-68
2022/03/28 07:55:08;;;;;;;14.25;7.38;;;;;;;16.85;53.18;99162.31;5067105;28;20017;-68
2022/03/28 07:57:37;;;;;;;12.55;7.10;;;;;;;17.07;52.94;99164.16;5066816;28;20017;-68
2022/03/28 08:00:05;;;;;;;11.00;6.80;;;;;;;17.09;52.94;99167.59;5066739;28;20024;-68
2022/03/28 08:02:31;;;;;;;13.13;7.40;;;;;;;17.28;52.30;99158.00;5066991;28;20043;-68
2022/03/28 08:04:57;;;;;;;11.05;6.63;;;;;;;17.72;52.02;99160.78;5066680;28;20317;-68
2022/03/28 08:07:22;;;;;;;12.30;7.35;;;;;;;17.70;52.21;99166.16;5066637;28;20032;-68
2022/03/28 08:09:47;;;;;;;15.32;8.68;;;;;;;17.90;52.36;99165.34;5066599;28;20020;-68
2022/03/28 08:12:13;;;;;;;10.70;7.10;;;;;;;18.67;50.70;99173.69;5066402;28;20052;-68
2022/03/28 08:14:39;;;;;;;15.05;8.18;;;;;;;18.89;50.16;99167.31;5066462;28;20082;-68
2022/03/28 08:17:05;;;;;;;14.82;8.45;;;;;;;19.14;50.50;99169.75;5066388;28;20089;-68
2022/03/28 08:19:31;;;;;;;13.75;8.73;;;;;;;19.17;50.64;99164.28;5066401;28;20020;-68
2022/03/28 08:21:57;;;;;;;14.52;8.15;;;;;;;19.62;49.28;99164.88;5066402;28;20040;-67
2022/03/28 08:24:23;;;;;;;13.25;8.15;;;;;;;19.66;49.86;99158.47;5066258;28;20024;-68
2022/03/28 08:26:51;;;;;;;12.10;7.47;;;;;;;19.80;49.64;99155.97;5066247;28;20050;-68
2022/03/28 08:29:17;;;;;;;14.75;7.45;;;;;;;20.44;48.22;99159.91;5066169;28;20040;-68
2022/03/28 08:31:42;;;;;;;14.23;7.13;;;;;;;20.85;48.46;99166.66;5066021;28;20048;-68
2022/03/28 08:34:08;;;;;;;13.10;7.95;;;;;;;21.23;46.64;99162.88;5066156;28;20090;-68
2022/03/28 08:36:35;;;;;;;16.73;8.10;;;;;;;21.37;45.89;99151.41;5066100;28;20020;-68
2022/03/28 08:39:01;;;;;;;12.32;7.07;;;;;;;21.72;45.46;99160.19;5066054;28;20053;-68
2022/03/28 08:41:27;;;;;;;12.57;8.35;;;;;;;22.15;44.33;99157.69;5066265;28;20024;-68
2022/03/28 08:43:52;;;;;;;14.10;8.45;;;;;;;22.10;44.25;99150.88;5066001;28;20393;-68
2022/03/28 08:46:18;;;;;;;14.68;8.57;;;;;;;22.51;44.72;99157.41;5065913;28;20338;-68
2022/03/28 08:48:44;;;;;;;13.35;7.75;;;;;;;22.91;43.09;99156.75;5065883;28;20024;-68
2022/03/28 08:51:11;;;;;;;13.57;7.47;;;;;;;22.90;44.69;99155.00;5065842;28;20070;-68
2022/03/28 08:53:38;;;;;;;12.93;7.90;;;;;;;22.96;43.75;99154.63;5065669;28;20032;-68
2022/03/28 08:56:05;;;;;;;18.42;8.30;;;;;;;23.04;37.66;99150.50;5065719;28;20339;-68
2022/03/28 08:58:30;;;;;;;15.48;8.65;;;;;;;23.58;31.70;99154.31;5065643;28;20021;-68
2022/03/28 09:00:56;;;;;;;15.88;8.88;;;;;;;22.96;40.50;99135.84;5065630;28;20100;-68
2022/03/28 09:03:36;;;;;;;15.80;7.97;;;;;;;23.13;36.32;99130.31;5065286;28;20020;-68
2022/03/28 09:06:28;;;;;;;16.70;9.30;;;;;;;23.10;36.99;99141.25;5065875;28;20021;-68
2022/03/28 09:08:53;;;;;;;14.33;8.60;;;;;;;23.13;36.34;99139.22;5065554;28;20031;-68
2022/03/28 09:11:20;;;;;;;15.13;7.55;;;;;;;23.59;35.65;99139.91;5065294;28;20266;-68
2022/03/28 09:13:45;;;;;;;13.43;7.80;;;;;;;23.42;36.84;99132.06;5065628;28;20021;-68
2022/03/28 09:16:17;;;;;;;17.10;9.35;;;;;;;23.96;36.12;99128.53;5065362;28;20030;-68
2022/03/28 09:18:43;;;;;;;14.95;7.80;;;;;;;23.77;35.44;99127.97;5065302;28;20136;-68
2022/03/28 09:21:14;;;;;;;16.42;8.32;;;;;;;23.93;35.56;99127.84;5065255;28;20032;-68
2022/03/28 09:23:42;;;;;;;15.10;8.45;;;;;;;24.19;37.26;99130.56;5065269;28;20025;-68
2022/03/28 09:26:20;;;;;;;17.02;8.73;;;;;;;24.36;36.04;99129.44;5065168;28;20088;-68
2022/03/28 09:28:49;;;;;;;16.25;8.27;;;;;;;24.14;38.98;99121.94;5065364;28;20245;-68
2022/03/28 09:31:43;;;;;;;17.55;8.65;;;;;;;24.25;37.58;99119.41;5064852;28;20045;-68
2022/03/28 09:34:14;;;;;;;17.70;9.35;;;;;;;23.92;37.56;99105.44;5064795;28;20043;-68
2022/03/28 09:36:48;;;;;;;18.70;9.25;;;;;;;23.75;39.09;99103.00;5065000;28;20052;-68
2022/03/28 09:39:28;;;;;;;15.40;8.82;;;;;;;24.38;37.69;99111.34;5064802;28;20021;-68
2022/03/28 09:42:06;;;;;;;16.40;8.02;;;;;;;24.17;37.38;99104.75;5064840;28;20020;-68
2022/03/28 09:44:50;;;;;;;13.82;9.02;;;;;;;24.22;38.39;99108.84;5064784;28;20032;-68
2022/03/28 09:47:23;;;;;;;14.75;7.90;;;;;;;24.28;38.41;99096.81;5064768;28;20020;-68
2022/03/28 09:49:52;;;;;;;14.85;8.55;;;;;;;24.69;35.95;99103.84;5064764;28;20091;-68
2022/03/28 09:52:25;;;;;;;16.13;9.27;;;;;;;24.42;37.49;99100.28;5064578;28;20324;-68
2022/03/28 09:54:57;;;;;;;13.15;8.23;;;;;;;24.91;36.57;99098.69;5064630;28;20031;-68
2022/03/28 09:57:23;;;;;;;;;;;;;;;25.02;37.66;99095.22;5064957;28;20025;-68
2022/03/28 09:59:50;;;;;;;13.93;8.30;;;;;;;25.14;36.83;99097.91;5064524;28;20219;-68
2022/03/28 10:02:23;;;;;;;15.18;8.80;;;;;;;24.93;37.14;99088.63;5064446;28;20021;-68
2022/03/28 10:04:52;;;;;;;19.35;8.70;;;;;;;24.62;37.50;99090.84;5064461;28;20236;-68
2022/03/28 10:07:19;;;;;;;20.27;10.23;;;;;;;24.45;37.50;99083.94;5064396;28;20025;-68
2022/03/28 10:09:46;;;;;;;14.40;8.20;;;;;;;24.73;34.89;99083.78;5064279;28;20033;-68
2022/03/28 10:12:13;;;;;;;17.42;8.57;;;;;;;24.58;33.29;99078.59;5064216;28;20021;-68
2022/03/28 10:14:38;;;;;;;18.20;8.98;;;;;;;24.23;34.07;99072.91;5063853;28;20056;-68
2022/03/28 10:17:05;;;;;;;16.30;8.00;;;;;;;24.71;33.33;99080.34;5064208;28;20025;-68
2022/03/28 10:19:33;;;;;;;16.42;8.68;;;;;;;24.90;32.46;99075.38;5064191;28;20052;-68
2022/03/28 10:22:01;;;;;;;18.48;8.13;;;;;;;24.88;33.31;99063.88;5064411;28;20071;-68
2022/03/28 10:24:29;;;;;;;18.10;8.00;;;;;;;24.93;33.75;99059.00;5064098;28;20068;-68
2022/03/28 10:26:57;;;;;;;15.52;7.82;;;;;;;24.82;34.08;99063.44;5064064;28;20320;-68
2022/03/28 10:29:23;;;;;;;19.13;8.07;;;;;;;24.47;34.10;99055.09;5064068;28;20067;-68
2022/03/28 10:31:55;;;;;;;21.02;9.40;;;;;;;24.41;34.29;99055.50;5063780;28;20071;-68
2022/03/28 10:34:53;;;;;;;15.88;8.73;;;;;;;24.64;33.09;99046.75;5063915;28;20079;-68
2022/03/28 10:37:34;;;;;;;21.17;8.20;;;;;;;24.74;33.22;99047.81;5063935;28;20036;-68
2022/03/28 10:40:30;;;;;;;19.77;9.17;;;;;;;24.14;34.00;99026.94;5063981;28;20029;-68
2022/03/28 10:43:10;;;;;;;17.05;8.02;;;;;;;24.18;34.02;99020.38;5063731;28;20098;-68
2022/03/28 10:45:39;;;;;;;19.95;9.55;;;;;;;24.30;33.35;99025.78;5063851;28;20020;-68
2022/03/28 10:48:06;;;;;;;17.00;8.23;;;;;;;24.63;32.85;99023.44;5063811;28;20031;-68
2022/03/28 10:50:34;;;;;;;16.85;8.57;;;;;;;24.88;31.91;99012.72;5063927;28;20325;-68
2022/03/28 10:53:11;;;;;;;14.95;7.32;;;;;;;24.68;32.38;99007.84;5063692;28;20028;-68
2022/03/28 10:55:52;;;;;;;21.58;8.98;;;;;;;24.71;32.92;99009.50;5063814;28;20025;-68
2022/03/28 10:58:28;;;;;;;19.33;8.65;;;;;;;24.63;32.83;99012.69;5063725;28;20025;-68
2022/03/28 11:01:09;;;;;;;22.33;8.68;;;;;;;24.68;32.49;99007.84;5063701;28;20133;-68
2022/03/28 11:03:41;;;;;;;21.97;8.43;;;;;;;24.52;32.42;99001.78;5063761;28;20371;-68
2022/03/28 11:06:07;;;;;;;16.42;8.13;;;;;;;24.77;30.20;99001.00;5063706;28;20035;-68
2022/03/28 11:08:35;;;;;;;17.25;7.63;;;;;;;24.44;32.53;98996.09;5063659;28;20080;-68
2022/03/28 11:11:23;;;;;;;17.77;8.98;;;;;;;24.53;33.24;98984.69;5063629;28;20201;-68
2022/03/28 11:14:11;;;;;;;20.00;9.02;;;;;;;24.72;32.23;98993.22;5063672;28;20021;-68
2022/03/28 11:16:44;;;;;;;18.98;8.07;;;;;;;24.64;33.07;98989.34;5063863;28;20326;-68
2022/03/28 11:19:33;;;;;;;19.05;8.73;;;;;;;24.43;34.16;98978.22;5063884;28;20258;-68
2022/03/28 11:22:04;;;;;;;14.95;7.35;;;;;;;24.49;34.40;98972.41;5063518;28;20120;-68
2022/03/28 11:24:54;;;;;;;19.10;9.05;;;;;;;24.49;33.77;98977.78;5063520;28;20029;-68
2022/03/28 11:27:21;;;;;;;16.80;8.40;;;;;;;24.07;35.94;98964.63;5067702;28;20096;-68
2022/03/28 11:29:47;;;;;;;16.92;8.07;;;;;;;24.10;34.35;98959.03;5067325;28;20027;-67
2022/03/28 11:32:16;;;;;;;16.02;7.65;;;;;;;23.98;33.19;98953.66;5067131;28;20037;-67